sensor_id;sensor_type;location;lat;lon;timestamp;temperature;humidity
14755;DHT22;7469;50.906;6.952;2023-11-18T00:00:19;3.90;99.90
14755;DHT22;7469;50.906;6.952;2023-11-18T00:02:47;3.80;99.90
14755;DHT22;7469;50.906;6.952;2023-11-18T00:05:15;3.90;99.90
14755;DHT22;7469;50.906;6.952;2023-11-18T00:07:45;3.90;99.90
14755;DHT22;7469;50.906;6.952;2023-11-18T00:10:13;3.90;99.90
14755;DHT22;7469;50.906;6.952;2023-11-18T00:12:41;3.90;99.90
14755;DHT22;7469;50.906;6.952;2023-11-18T00:15:10;3.90;99.90
14755;DHT22;7469;50.906;6.952;2023-11-18T00:17:38;4.00;99.90
14755;DHT22;7469;50.906;6.952;2023-11-18T00:20:07;4.10;99.90
14755;DHT22;7469;50.906;6.952;2023-11-18T00:22:37;4.00;99.90
14755;DHT22;7469;50.906;6.952;2023-11-18T00:25:08;4.00;99.90
14755;DHT22;7469;50.906;6.952;2023-11-18T00:27:37;4.10;99.90
14755;DHT22;7469;50.906;6.952;2023-11-18T00:30:06;4.10;99.90
14755;DHT22;7469;50.906;6.952;2023-11-18T00:32:37;4.10;99.90
14755;DHT22;7469;50.906;6.952;2023-11-18T00:35:06;4.10;99.90
14755;DHT22;7469;50.906;6.952;2023-11-18T00:37:36;4.10;99.90
14755;DHT22;7469;50.906;6.952;2023-11-18T00:40:08;4.10;99.90
14755;DHT22;7469;50.906;6.952;2023-11-18T00:42:36;4.00;99.90
14755;DHT22;7469;50.906;6.952;2023-11-18T00:45:05;4.00;99.90
14755;DHT22;7469;50.906;6.952;2023-11-18T00:47:34;4.10;99.90
14755;DHT22;7469;50.906;6.952;2023-11-18T00:50:02;4.10;99.90
14755;DHT22;7469;50.906;6.952;2023-11-18T00:52:35;4.10;99.90
14755;DHT22;7469;50.906;6.952;2023-11-18T00:55:07;4.10;99.90
14755;DHT22;7469;50.906;6.952;2023-11-18T00:57:37;4.20;99.90
14755;DHT22;7469;50.906;6.952;2023-11-18T01:00:08;4.20;99.90
14755;DHT22;7469;50.906;6.952;2023-11-18T01:02:40;4.30;99.90
14755;DHT22;7469;50.906;6.952;2023-11-18T01:05:08;4.20;99.90
14755;DHT22;7469;50.906;6.952;2023-11-18T01:07:37;4.20;99.90
14755;DHT22;7469;50.906;6.952;2023-11-18T01:10:08;4.20;99.90
14755;DHT22;7469;50.906;6.952;2023-11-18T01:12:37;4.20;99.90
14755;DHT22;7469;50.906;6.952;2023-11-18T01:15:05;4.20;99.90
14755;DHT22;7469;50.906;6.952;2023-11-18T01:17:34;4.20;99.90
14755;DHT22;7469;50.906;6.952;2023-11-18T01:20:02;4.20;99.90
14755;DHT22;7469;50.906;6.952;2023-11-18T01:22:36;4.30;99.90
14755;DHT22;7469;50.906;6.952;2023-11-18T01:25:05;4.30;99.90
14755;DHT22;7469;50.906;6.952;2023-11-18T01:27:34;4.30;99.90
14755;DHT22;7469;50.906;6.952;2023-11-18T01:30:03;4.40;99.90
14755;DHT22;7469;50.906;6.952;2023-11-18T01:32:31;4.40;99.90
14755;DHT22;7469;50.906;6.952;2023-11-18T01:34:59;4.30;99.90
14755;DHT22;7469;50.906;6.952;2023-11-18T01:37:27;4.40;99.90
14755;DHT22;7469;50.906;6.952;2023-11-18T01:39:55;4.40;99.90
14755;DHT22;7469;50.906;6.952;2023-11-18T01:42:23;4.50;99.90
14755;DHT22;7469;50.906;6.952;2023-11-18T01:44:53;4.50;99.90
14755;DHT22;7469;50.906;6.952;2023-11-18T01:47:21;4.50;99.90
14755;DHT22;7469;50.906;6.952;2023-11-18T01:49:50;4.50;99.90
14755;DHT22;7469;50.906;6.952;2023-11-18T01:52:18;4.50;99.90
14755;DHT22;7469;50.906;6.952;2023-11-18T01:54:48;4.40;99.90
14755;DHT22;7469;50.906;6.952;2023-11-18T01:57:16;4.40;99.90
14755;DHT22;7469;50.906;6.952;2023-11-18T01:59:44;4.40;99.90
14755;DHT22;7469;50.906;6.952;2023-11-18T02:02:13;4.40;99.90
14755;DHT22;7469;50.906;6.952;2023-11-18T02:04:41;4.40;99.90
14755;DHT22;7469;50.906;6.952;2023-11-18T02:07:11;4.40;99.90
14755;DHT22;7469;50.906;6.952;2023-11-18T02:09:42;4.40;99.90
14755;DHT22;7469;50.906;6.952;2023-11-18T02:12:18;4.50;99.90
14755;DHT22;7469;50.906;6.952;2023-11-18T02:14:48;4.40;99.90
14755;DHT22;7469;50.906;6.952;2023-11-18T02:17:22;4.50;99.90
14755;DHT22;7469;50.906;6.952;2023-11-18T02:19:52;4.40;99.90
14755;DHT22;7469;50.906;6.952;2023-11-18T02:22:21;4.40;99.90
14755;DHT22;7469;50.906;6.952;2023-11-18T02:24:49;4.40;99.90
14755;DHT22;7469;50.906;6.952;2023-11-18T02:27:18;4.40;99.90
14755;DHT22;7469;50.906;6.952;2023-11-18T02:29:49;4.40;99.90
14755;DHT22;7469;50.906;6.952;2023-11-18T02:32:23;4.40;99.90
14755;DHT22;7469;50.906;6.952;2023-11-18T02:35:02;4.40;99.90
14755;DHT22;7469;50.906;6.952;2023-11-18T02:37:33;4.40;99.90
14755;DHT22;7469;50.906;6.952;2023-11-18T02:40:04;4.40;99.90
14755;DHT22;7469;50.906;6.952;2023-11-18T02:42:37;4.40;99.90
14755;DHT22;7469;50.906;6.952;2023-11-18T02:45:07;4.50;99.90
14755;DHT22;7469;50.906;6.952;2023-11-18T02:47:39;4.40;99.90
14755;DHT22;7469;50.906;6.952;2023-11-18T02:50:07;4.40;99.90
14755;DHT22;7469;50.906;6.952;2023-11-18T02:52:37;4.40;99.90
14755;DHT22;7469;50.906;6.952;2023-11-18T02:55:06;4.40;99.90
14755;DHT22;7469;50.906;6.952;2023-11-18T02:57:37;4.40;99.90
14755;DHT22;7469;50.906;6.952;2023-11-18T03:00:06;4.40;99.90
14755;DHT22;7469;50.906;6.952;2023-11-18T03:02:39;4.40;99.90
14755;DHT22;7469;50.906;6.952;2023-11-18T03:05:07;4.40;99.90
14755;DHT22;7469;50.906;6.952;2023-11-18T03:07:38;4.40;99.90
14755;DHT22;7469;50.906;6.952;2023-11-18T03:10:07;4.40;99.90
14755;DHT22;7469;50.906;6.952;2023-11-18T03:12:39;4.40;99.90
14755;DHT22;7469;50.906;6.952;2023-11-18T03:15:08;4.50;99.90
14755;DHT22;7469;50.906;6.952;2023-11-18T03:17:36;4.50;99.90
14755;DHT22;7469;50.906;6.952;2023-11-18T03:20:05;4.50;99.90
14755;DHT22;7469;50.906;6.952;2023-11-18T03:22:38;4.50;99.90
14755;DHT22;7469;50.906;6.952;2023-11-18T03:25:07;4.50;99.90
14755;DHT22;7469;50.906;6.952;2023-11-18T03:27:35;4.50;99.90
14755;DHT22;7469;50.906;6.952;2023-11-18T03:30:05;4.50;99.90
14755;DHT22;7469;50.906;6.952;2023-11-18T03:32:34;4.50;99.90
14755;DHT22;7469;50.906;6.952;2023-11-18T03:35:02;4.50;99.90
14755;DHT22;7469;50.906;6.952;2023-11-18T03:37:31;4.50;99.90
14755;DHT22;7469;50.906;6.952;2023-11-18T03:39:59;4.50;99.90
14755;DHT22;7469;50.906;6.952;2023-11-18T03:42:27;4.50;99.90
14755;DHT22;7469;50.906;6.952;2023-11-18T03:44:55;4.50;99.90
14755;DHT22;7469;50.906;6.952;2023-11-18T03:47:25;4.50;99.90
14755;DHT22;7469;50.906;6.952;2023-11-18T03:49:53;4.50;99.90
14755;DHT22;7469;50.906;6.952;2023-11-18T03:52:21;4.40;99.90
14755;DHT22;7469;50.906;6.952;2023-11-18T03:54:49;4.50;99.90
14755;DHT22;7469;50.906;6.952;2023-11-18T03:57:17;4.50;99.90
14755;DHT22;7469;50.906;6.952;2023-11-18T03:59:45;4.50;99.90
14755;DHT22;7469;50.906;6.952;2023-11-18T04:02:13;4.40;99.90
14755;DHT22;7469;50.906;6.952;2023-11-18T04:04:42;4.40;99.90
14755;DHT22;7469;50.906;6.952;2023-11-18T04:07:10;4.50;99.90
14755;DHT22;7469;50.906;6.952;2023-11-18T04:09:38;4.50;99.90
14755;DHT22;7469;50.906;6.952;2023-11-18T04:12:08;4.50;99.90
14755;DHT22;7469;50.906;6.952;2023-11-18T04:14:36;4.50;99.90
14755;DHT22;7469;50.906;6.952;2023-11-18T04:17:04;4.50;99.90
14755;DHT22;7469;50.906;6.952;2023-11-18T04:19:34;4.50;99.90
14755;DHT22;7469;50.906;6.952;2023-11-18T04:22:03;4.50;99.90
14755;DHT22;7469;50.906;6.952;2023-11-18T04:24:33;4.50;99.90
14755;DHT22;7469;50.906;6.952;2023-11-18T04:27:02;4.40;99.90
14755;DHT22;7469;50.906;6.952;2023-11-18T04:29:30;4.50;99.90
14755;DHT22;7469;50.906;6.952;2023-11-18T04:31:58;4.50;99.90
14755;DHT22;7469;50.906;6.952;2023-11-18T04:34:26;4.50;99.90
14755;DHT22;7469;50.906;6.952;2023-11-18T04:36:54;4.50;99.90
14755;DHT22;7469;50.906;6.952;2023-11-18T04:39:24;4.40;99.90
14755;DHT22;7469;50.906;6.952;2023-11-18T04:41:52;4.40;99.90
14755;DHT22;7469;50.906;6.952;2023-11-18T04:44:20;4.40;99.90
14755;DHT22;7469;50.906;6.952;2023-11-18T04:46:48;4.40;99.90
14755;DHT22;7469;50.906;6.952;2023-11-18T04:49:16;4.40;99.90
14755;DHT22;7469;50.906;6.952;2023-11-18T04:51:44;4.40;99.90
14755;DHT22;7469;50.906;6.952;2023-11-18T04:54:12;4.40;99.90
14755;DHT22;7469;50.906;6.952;2023-11-18T04:56:42;4.40;99.90
14755;DHT22;7469;50.906;6.952;2023-11-18T04:59:11;4.40;99.90
14755;DHT22;7469;50.906;6.952;2023-11-18T05:01:38;4.40;99.90
14755;DHT22;7469;50.906;6.952;2023-11-18T05:04:07;4.50;99.90
14755;DHT22;7469;50.906;6.952;2023-11-18T05:06:36;4.50;99.90
14755;DHT22;7469;50.906;6.952;2023-11-18T05:09:04;4.50;99.90
14755;DHT22;7469;50.906;6.952;2023-11-18T05:11:34;4.50;99.90
14755;DHT22;7469;50.906;6.952;2023-11-18T05:14:03;4.50;99.90
14755;DHT22;7469;50.906;6.952;2023-11-18T05:16:33;4.50;99.90
14755;DHT22;7469;50.906;6.952;2023-11-18T05:19:01;4.60;99.90
14755;DHT22;7469;50.906;6.952;2023-11-18T05:21:29;4.50;99.90
14755;DHT22;7469;50.906;6.952;2023-11-18T05:23:57;4.50;99.90
14755;DHT22;7469;50.906;6.952;2023-11-18T05:26:25;4.50;99.90
14755;DHT22;7469;50.906;6.952;2023-11-18T05:28:53;4.50;99.90
14755;DHT22;7469;50.906;6.952;2023-11-18T05:31:23;4.50;99.90
14755;DHT22;7469;50.906;6.952;2023-11-18T05:33:50;4.50;99.90
14755;DHT22;7469;50.906;6.952;2023-11-18T05:36:22;4.50;99.90
14755;DHT22;7469;50.906;6.952;2023-11-18T05:38:55;4.50;99.90
14755;DHT22;7469;50.906;6.952;2023-11-18T05:41:23;4.50;99.90
14755;DHT22;7469;50.906;6.952;2023-11-18T05:43:55;4.50;99.90
14755;DHT22;7469;50.906;6.952;2023-11-18T05:46:26;4.50;99.90
14755;DHT22;7469;50.906;6.952;2023-11-18T05:48:57;4.50;99.90
14755;DHT22;7469;50.906;6.952;2023-11-18T05:51:26;4.50;99.90
14755;DHT22;7469;50.906;6.952;2023-11-18T05:53:55;4.50;99.90
14755;DHT22;7469;50.906;6.952;2023-11-18T05:56:24;4.50;99.90
14755;DHT22;7469;50.906;6.952;2023-11-18T05:58:52;4.60;99.90
14755;DHT22;7469;50.906;6.952;2023-11-18T06:01:21;4.60;99.90
14755;DHT22;7469;50.906;6.952;2023-11-18T06:03:51;4.50;99.90
14755;DHT22;7469;50.906;6.952;2023-11-18T06:06:19;4.50;99.90
14755;DHT22;7469;50.906;6.952;2023-11-18T06:08:50;4.50;99.90
14755;DHT22;7469;50.906;6.952;2023-11-18T06:11:20;4.50;99.90
14755;DHT22;7469;50.906;6.952;2023-11-18T06:13:50;4.60;99.90
14755;DHT22;7469;50.906;6.952;2023-11-18T06:16:20;4.60;99.90
14755;DHT22;7469;50.906;6.952;2023-11-18T06:18:51;4.60;99.90
14755;DHT22;7469;50.906;6.952;2023-11-18T06:21:21;4.60;99.90
14755;DHT22;7469;50.906;6.952;2023-11-18T06:23:51;4.70;99.90
14755;DHT22;7469;50.906;6.952;2023-11-18T06:26:22;4.70;99.90
14755;DHT22;7469;50.906;6.952;2023-11-18T06:28:51;4.70;99.90
14755;DHT22;7469;50.906;6.952;2023-11-18T06:31:19;4.70;99.90
14755;DHT22;7469;50.906;6.952;2023-11-18T06:33:47;4.70;99.90
14755;DHT22;7469;50.906;6.952;2023-11-18T06:36:21;4.70;99.90
14755;DHT22;7469;50.906;6.952;2023-11-18T06:38:51;4.70;99.90
14755;DHT22;7469;50.906;6.952;2023-11-18T06:41:21;4.70;99.90
14755;DHT22;7469;50.906;6.952;2023-11-18T06:43:50;4.70;99.90
14755;DHT22;7469;50.906;6.952;2023-11-18T06:46:29;4.70;99.90
14755;DHT22;7469;50.906;6.952;2023-11-18T06:49:00;4.70;99.90
14755;DHT22;7469;50.906;6.952;2023-11-18T06:51:33;4.70;99.90
14755;DHT22;7469;50.906;6.952;2023-11-18T06:54:05;4.70;99.90
14755;DHT22;7469;50.906;6.952;2023-11-18T06:56:37;4.70;99.90
14755;DHT22;7469;50.906;6.952;2023-11-18T06:59:06;4.70;99.90
14755;DHT22;7469;50.906;6.952;2023-11-18T07:01:34;4.70;99.90
14755;DHT22;7469;50.906;6.952;2023-11-18T07:04:03;4.70;99.90
14755;DHT22;7469;50.906;6.952;2023-11-18T07:06:36;4.80;99.90
14755;DHT22;7469;50.906;6.952;2023-11-18T07:09:06;4.80;99.90
14755;DHT22;7469;50.906;6.952;2023-11-18T07:11:39;4.80;99.90
14755;DHT22;7469;50.906;6.952;2023-11-18T07:14:09;4.80;99.90
14755;DHT22;7469;50.906;6.952;2023-11-18T07:16:39;4.80;99.90
14755;DHT22;7469;50.906;6.952;2023-11-18T07:19:08;4.80;99.90
14755;DHT22;7469;50.906;6.952;2023-11-18T07:21:40;4.90;99.90
14755;DHT22;7469;50.906;6.952;2023-11-18T07:24:08;4.90;99.90
14755;DHT22;7469;50.906;6.952;2023-11-18T07:26:36;4.90;99.90
14755;DHT22;7469;50.906;6.952;2023-11-18T07:29:04;5.00;99.90
14755;DHT22;7469;50.906;6.952;2023-11-18T07:31:34;4.90;99.90
14755;DHT22;7469;50.906;6.952;2023-11-18T07:34:03;5.00;99.90
14755;DHT22;7469;50.906;6.952;2023-11-18T07:36:32;5.00;99.90
14755;DHT22;7469;50.906;6.952;2023-11-18T07:39:02;5.00;99.90
14755;DHT22;7469;50.906;6.952;2023-11-18T07:41:31;5.00;99.90
14755;DHT22;7469;50.906;6.952;2023-11-18T07:44:00;5.00;99.90
14755;DHT22;7469;50.906;6.952;2023-11-18T07:46:28;5.00;99.90
14755;DHT22;7469;50.906;6.952;2023-11-18T07:48:58;5.10;99.90
14755;DHT22;7469;50.906;6.952;2023-11-18T07:51:28;5.00;99.90
14755;DHT22;7469;50.906;6.952;2023-11-18T07:53:56;5.10;99.90
14755;DHT22;7469;50.906;6.952;2023-11-18T07:56:26;5.10;99.90
14755;DHT22;7469;50.906;6.952;2023-11-18T07:58:55;5.20;99.90
14755;DHT22;7469;50.906;6.952;2023-11-18T08:01:23;5.20;99.90
14755;DHT22;7469;50.906;6.952;2023-11-18T08:03:53;5.20;99.90
14755;DHT22;7469;50.906;6.952;2023-11-18T08:06:21;5.30;99.90
14755;DHT22;7469;50.906;6.952;2023-11-18T08:08:52;5.20;99.90
14755;DHT22;7469;50.906;6.952;2023-11-18T08:11:21;5.30;99.90
14755;DHT22;7469;50.906;6.952;2023-11-18T08:13:51;5.30;99.90
14755;DHT22;7469;50.906;6.952;2023-11-18T08:16:20;5.30;99.90
14755;DHT22;7469;50.906;6.952;2023-11-18T08:18:49;5.40;99.90
14755;DHT22;7469;50.906;6.952;2023-11-18T08:21:17;5.40;99.90
14755;DHT22;7469;50.906;6.952;2023-11-18T08:23:44;5.40;99.90
14755;DHT22;7469;50.906;6.952;2023-11-18T08:26:12;5.50;99.90
14755;DHT22;7469;50.906;6.952;2023-11-18T08:28:40;5.50;99.90
14755;DHT22;7469;50.906;6.952;2023-11-18T08:31:10;5.50;99.90
14755;DHT22;7469;50.906;6.952;2023-11-18T08:33:42;5.50;99.90
14755;DHT22;7469;50.906;6.952;2023-11-18T08:36:13;5.50;99.90
14755;DHT22;7469;50.906;6.952;2023-11-18T08:38:41;5.60;99.90
14755;DHT22;7469;50.906;6.952;2023-11-18T08:41:11;5.60;99.90
14755;DHT22;7469;50.906;6.952;2023-11-18T08:43:39;5.70;99.90
14755;DHT22;7469;50.906;6.952;2023-11-18T08:46:07;5.70;99.90
14755;DHT22;7469;50.906;6.952;2023-11-18T08:48:37;5.70;99.90
14755;DHT22;7469;50.906;6.952;2023-11-18T08:51:05;5.80;99.90
14755;DHT22;7469;50.906;6.952;2023-11-18T08:53:35;5.80;99.90
14755;DHT22;7469;50.906;6.952;2023-11-18T08:56:08;5.80;99.90
14755;DHT22;7469;50.906;6.952;2023-11-18T08:58:44;5.80;99.90
14755;DHT22;7469;50.906;6.952;2023-11-18T09:01:12;5.90;99.90
14755;DHT22;7469;50.906;6.952;2023-11-18T09:03:44;5.90;99.90
14755;DHT22;7469;50.906;6.952;2023-11-18T09:06:16;5.90;99.90
14755;DHT22;7469;50.906;6.952;2023-11-18T09:08:53;6.00;99.90
14755;DHT22;7469;50.906;6.952;2023-11-18T09:11:22;6.00;99.90
14755;DHT22;7469;50.906;6.952;2023-11-18T09:13:53;6.00;99.90
14755;DHT22;7469;50.906;6.952;2023-11-18T09:16:25;6.00;99.90
14755;DHT22;7469;50.906;6.952;2023-11-18T09:18:57;6.10;99.90
14755;DHT22;7469;50.906;6.952;2023-11-18T09:21:26;6.10;99.90
14755;DHT22;7469;50.906;6.952;2023-11-18T09:23:56;6.10;99.90
14755;DHT22;7469;50.906;6.952;2023-11-18T09:26:24;6.10;99.90
14755;DHT22;7469;50.906;6.952;2023-11-18T09:28:57;6.20;99.90
14755;DHT22;7469;50.906;6.952;2023-11-18T09:31:28;6.20;99.90
14755;DHT22;7469;50.906;6.952;2023-11-18T09:33:59;6.20;99.90
14755;DHT22;7469;50.906;6.952;2023-11-18T09:36:28;6.20;99.90
14755;DHT22;7469;50.906;6.952;2023-11-18T09:38:56;6.20;99.90
14755;DHT22;7469;50.906;6.952;2023-11-18T09:41:24;6.20;99.90
14755;DHT22;7469;50.906;6.952;2023-11-18T09:43:54;6.30;99.90
14755;DHT22;7469;50.906;6.952;2023-11-18T09:46:25;6.30;99.90
14755;DHT22;7469;50.906;6.952;2023-11-18T09:49:06;6.40;99.90
14755;DHT22;7469;50.906;6.952;2023-11-18T09:51:43;6.40;99.90
14755;DHT22;7469;50.906;6.952;2023-11-18T09:54:19;6.40;99.90
14755;DHT22;7469;50.906;6.952;2023-11-18T09:56:56;6.50;99.90
14755;DHT22;7469;50.906;6.952;2023-11-18T09:59:42;6.50;99.90
14755;DHT22;7469;50.906;6.952;2023-11-18T10:02:12;6.50;99.90
14755;DHT22;7469;50.906;6.952;2023-11-18T10:04:43;6.60;99.90
14755;DHT22;7469;50.906;6.952;2023-11-18T10:07:13;6.60;99.90
14755;DHT22;7469;50.906;6.952;2023-11-18T10:09:43;6.70;99.90
14755;DHT22;7469;50.906;6.952;2023-11-18T10:12:12;6.70;99.90
14755;DHT22;7469;50.906;6.952;2023-11-18T10:14:43;6.80;99.90
14755;DHT22;7469;50.906;6.952;2023-11-18T10:17:11;6.80;99.90
14755;DHT22;7469;50.906;6.952;2023-11-18T10:19:51;6.80;99.90
14755;DHT22;7469;50.906;6.952;2023-11-18T10:22:23;6.80;99.90
14755;DHT22;7469;50.906;6.952;2023-11-18T10:24:53;6.90;99.90
14755;DHT22;7469;50.906;6.952;2023-11-18T10:27:23;6.90;99.90
14755;DHT22;7469;50.906;6.952;2023-11-18T10:29:55;6.90;99.90
14755;DHT22;7469;50.906;6.952;2023-11-18T10:32:23;6.90;99.90
14755;DHT22;7469;50.906;6.952;2023-11-18T10:34:57;6.90;99.90
14755;DHT22;7469;50.906;6.952;2023-11-18T10:37:26;7.00;99.90
14755;DHT22;7469;50.906;6.952;2023-11-18T10:39:57;6.90;99.90
14755;DHT22;7469;50.906;6.952;2023-11-18T10:42:27;7.00;99.90
14755;DHT22;7469;50.906;6.952;2023-11-18T10:44:57;7.00;99.90
14755;DHT22;7469;50.906;6.952;2023-11-18T10:47:26;7.00;99.90
14755;DHT22;7469;50.906;6.952;2023-11-18T10:49:56;7.00;99.90
14755;DHT22;7469;50.906;6.952;2023-11-18T10:52:24;7.00;99.90
14755;DHT22;7469;50.906;6.952;2023-11-18T10:54:57;7.00;99.90
14755;DHT22;7469;50.906;6.952;2023-11-18T10:57:25;7.00;99.90
14755;DHT22;7469;50.906;6.952;2023-11-18T10:59:59;7.10;99.90
14755;DHT22;7469;50.906;6.952;2023-11-18T11:02:30;7.10;99.90
14755;DHT22;7469;50.906;6.952;2023-11-18T11:05:04;7.10;99.90
14755;DHT22;7469;50.906;6.952;2023-11-18T11:07:32;7.10;99.90
14755;DHT22;7469;50.906;6.952;2023-11-18T11:10:00;7.10;99.90
14755;DHT22;7469;50.906;6.952;2023-11-18T11:12:34;7.20;99.90
14755;DHT22;7469;50.906;6.952;2023-11-18T11:15:08;7.20;99.90
14755;DHT22;7469;50.906;6.952;2023-11-18T11:17:52;7.20;99.90
14755;DHT22;7469;50.906;6.952;2023-11-18T11:20:25;7.20;99.90
14755;DHT22;7469;50.906;6.952;2023-11-18T11:23:05;7.10;99.90
14755;DHT22;7469;50.906;6.952;2023-11-18T11:25:42;7.20;99.90
14755;DHT22;7469;50.906;6.952;2023-11-18T11:28:15;7.20;99.90
14755;DHT22;7469;50.906;6.952;2023-11-18T11:30:50;7.30;99.90
14755;DHT22;7469;50.906;6.952;2023-11-18T11:33:27;7.30;99.90
14755;DHT22;7469;50.906;6.952;2023-11-18T11:36:02;7.30;99.90
14755;DHT22;7469;50.906;6.952;2023-11-18T11:38:32;7.40;99.90
14755;DHT22;7469;50.906;6.952;2023-11-18T11:41:02;7.40;99.90
14755;DHT22;7469;50.906;6.952;2023-11-18T11:43:35;7.40;99.90
14755;DHT22;7469;50.906;6.952;2023-11-18T11:46:04;7.50;99.90
14755;DHT22;7469;50.906;6.952;2023-11-18T11:48:38;7.50;99.90
14755;DHT22;7469;50.906;6.952;2023-11-18T11:51:20;7.50;99.90
14755;DHT22;7469;50.906;6.952;2023-11-18T11:53:58;7.50;99.90
14755;DHT22;7469;50.906;6.952;2023-11-18T11:56:39;7.40;99.90
14755;DHT22;7469;50.906;6.952;2023-11-18T11:59:07;7.50;99.90
14755;DHT22;7469;50.906;6.952;2023-11-18T12:01:38;7.50;99.90
14755;DHT22;7469;50.906;6.952;2023-11-18T12:04:12;7.50;99.90
14755;DHT22;7469;50.906;6.952;2023-11-18T12:06:52;7.50;99.90
14755;DHT22;7469;50.906;6.952;2023-11-18T12:09:38;7.50;99.90
14755;DHT22;7469;50.906;6.952;2023-11-18T12:12:14;7.50;99.90
14755;DHT22;7469;50.906;6.952;2023-11-18T12:14:50;7.50;99.90
14755;DHT22;7469;50.906;6.952;2023-11-18T12:17:19;7.50;99.90
14755;DHT22;7469;50.906;6.952;2023-11-18T12:19:55;7.50;99.90
14755;DHT22;7469;50.906;6.952;2023-11-18T12:22:27;7.50;99.90
14755;DHT22;7469;50.906;6.952;2023-11-18T12:25:30;7.50;99.90
14755;DHT22;7469;50.906;6.952;2023-11-18T12:28:10;7.50;99.90
14755;DHT22;7469;50.906;6.952;2023-11-18T12:30:43;7.50;99.90
14755;DHT22;7469;50.906;6.952;2023-11-18T12:33:23;7.60;99.90
14755;DHT22;7469;50.906;6.952;2023-11-18T12:36:25;7.60;99.90
14755;DHT22;7469;50.906;6.952;2023-11-18T12:39:27;7.60;99.90
14755;DHT22;7469;50.906;6.952;2023-11-18T12:42:04;7.50;99.90
14755;DHT22;7469;50.906;6.952;2023-11-18T12:47:33;7.50;99.90
14755;DHT22;7469;50.906;6.952;2023-11-18T12:50:09;7.50;99.90
14755;DHT22;7469;50.906;6.952;2023-11-18T12:52:44;7.50;99.90
14755;DHT22;7469;50.906;6.952;2023-11-18T12:55:13;7.50;99.90
14755;DHT22;7469;50.906;6.952;2023-11-18T12:57:46;7.50;99.90
14755;DHT22;7469;50.906;6.952;2023-11-18T13:00:16;7.60;99.90
14755;DHT22;7469;50.906;6.952;2023-11-18T13:02:53;7.60;99.90
14755;DHT22;7469;50.906;6.952;2023-11-18T13:05:22;7.60;99.90
14755;DHT22;7469;50.906;6.952;2023-11-18T13:07:51;7.60;99.90
14755;DHT22;7469;50.906;6.952;2023-11-18T13:10:20;7.60;99.90
14755;DHT22;7469;50.906;6.952;2023-11-18T13:12:49;7.60;99.90
14755;DHT22;7469;50.906;6.952;2023-11-18T13:15:17;7.50;99.90
14755;DHT22;7469;50.906;6.952;2023-11-18T13:17:57;7.50;99.90
14755;DHT22;7469;50.906;6.952;2023-11-18T13:20:25;7.50;99.90
14755;DHT22;7469;50.906;6.952;2023-11-18T13:22:53;7.50;99.90
14755;DHT22;7469;50.906;6.952;2023-11-18T13:25:24;7.50;99.90
14755;DHT22;7469;50.906;6.952;2023-11-18T13:27:52;7.50;99.90
14755;DHT22;7469;50.906;6.952;2023-11-18T13:30:21;7.50;99.90
14755;DHT22;7469;50.906;6.952;2023-11-18T13:32:50;7.50;99.90
14755;DHT22;7469;50.906;6.952;2023-11-18T13:35:19;7.50;99.90
14755;DHT22;7469;50.906;6.952;2023-11-18T13:37:50;7.50;99.90
14755;DHT22;7469;50.906;6.952;2023-11-18T13:40:20;7.50;99.90
14755;DHT22;7469;50.906;6.952;2023-11-18T13:43:02;7.50;99.90
14755;DHT22;7469;50.906;6.952;2023-11-18T13:45:32;7.50;99.90
14755;DHT22;7469;50.906;6.952;2023-11-18T13:48:05;7.50;99.90
14755;DHT22;7469;50.906;6.952;2023-11-18T13:50:35;7.50;99.90
14755;DHT22;7469;50.906;6.952;2023-11-18T13:53:04;7.60;99.90
14755;DHT22;7469;50.906;6.952;2023-11-18T13:55:32;7.60;99.90
14755;DHT22;7469;50.906;6.952;2023-11-18T13:58:02;7.60;99.90
14755;DHT22;7469;50.906;6.952;2023-11-18T14:00:31;7.60;99.90
14755;DHT22;7469;50.906;6.952;2023-11-18T14:03:00;7.60;99.90
14755;DHT22;7469;50.906;6.952;2023-11-18T14:05:33;7.60;99.90
14755;DHT22;7469;50.906;6.952;2023-11-18T14:08:03;7.60;99.90
14755;DHT22;7469;50.906;6.952;2023-11-18T14:10:37;7.60;99.90
14755;DHT22;7469;50.906;6.952;2023-11-18T14:13:09;7.60;99.90
14755;DHT22;7469;50.906;6.952;2023-11-18T14:15:40;7.60;99.90
14755;DHT22;7469;50.906;6.952;2023-11-18T14:18:11;7.60;99.90
14755;DHT22;7469;50.906;6.952;2023-11-18T14:20:40;7.60;99.90
14755;DHT22;7469;50.906;6.952;2023-11-18T14:23:08;7.60;99.90
14755;DHT22;7469;50.906;6.952;2023-11-18T14:25:38;7.60;99.90
14755;DHT22;7469;50.906;6.952;2023-11-18T14:28:06;7.60;99.90
14755;DHT22;7469;50.906;6.952;2023-11-18T14:30:36;7.60;99.90
14755;DHT22;7469;50.906;6.952;2023-11-18T14:33:04;7.60;99.90
14755;DHT22;7469;50.906;6.952;2023-11-18T14:35:34;7.60;99.90
14755;DHT22;7469;50.906;6.952;2023-11-18T14:38:02;7.60;99.90
14755;DHT22;7469;50.906;6.952;2023-11-18T14:40:32;7.60;99.90
14755;DHT22;7469;50.906;6.952;2023-11-18T14:43:00;7.60;99.90
14755;DHT22;7469;50.906;6.952;2023-11-18T14:45:28;7.60;99.90
14755;DHT22;7469;50.906;6.952;2023-11-18T14:47:57;7.50;99.90
14755;DHT22;7469;50.906;6.952;2023-11-18T14:50:27;7.50;99.90
14755;DHT22;7469;50.906;6.952;2023-11-18T14:52:55;7.50;99.90
14755;DHT22;7469;50.906;6.952;2023-11-18T14:55:27;7.50;99.90
14755;DHT22;7469;50.906;6.952;2023-11-18T14:57:55;7.50;99.90
14755;DHT22;7469;50.906;6.952;2023-11-18T15:00:24;7.50;99.90
14755;DHT22;7469;50.906;6.952;2023-11-18T15:02:54;7.50;99.90
14755;DHT22;7469;50.906;6.952;2023-11-18T15:05:27;7.50;99.90
14755;DHT22;7469;50.906;6.952;2023-11-18T15:07:56;7.50;99.90
14755;DHT22;7469;50.906;6.952;2023-11-18T15:10:27;7.40;99.90
14755;DHT22;7469;50.906;6.952;2023-11-18T15:12:56;7.40;99.90
14755;DHT22;7469;50.906;6.952;2023-11-18T15:15:27;7.40;99.90
14755;DHT22;7469;50.906;6.952;2023-11-18T15:18:00;7.40;99.90
14755;DHT22;7469;50.906;6.952;2023-11-18T15:20:32;7.30;99.90
14755;DHT22;7469;50.906;6.952;2023-11-18T15:23:01;7.30;99.90
14755;DHT22;7469;50.906;6.952;2023-11-18T15:25:29;7.30;99.90
14755;DHT22;7469;50.906;6.952;2023-11-18T15:27:57;7.30;99.90
14755;DHT22;7469;50.906;6.952;2023-11-18T15:30:25;7.20;99.90
14755;DHT22;7469;50.906;6.952;2023-11-18T15:32:54;7.20;99.90
14755;DHT22;7469;50.906;6.952;2023-11-18T15:35:23;7.20;99.90
14755;DHT22;7469;50.906;6.952;2023-11-18T15:37:53;7.20;99.90
14755;DHT22;7469;50.906;6.952;2023-11-18T15:40:21;7.30;99.90
14755;DHT22;7469;50.906;6.952;2023-11-18T15:42:52;7.30;99.90
14755;DHT22;7469;50.906;6.952;2023-11-18T15:45:21;7.30;99.90
14755;DHT22;7469;50.906;6.952;2023-11-18T15:47:52;7.30;99.90
14755;DHT22;7469;50.906;6.952;2023-11-18T15:50:20;7.30;99.90
14755;DHT22;7469;50.906;6.952;2023-11-18T15:52:49;7.30;99.90
14755;DHT22;7469;50.906;6.952;2023-11-18T15:55:21;7.30;99.90
14755;DHT22;7469;50.906;6.952;2023-11-18T15:57:51;7.30;99.90
14755;DHT22;7469;50.906;6.952;2023-11-18T16:00:21;7.30;99.90
14755;DHT22;7469;50.906;6.952;2023-11-18T16:02:53;7.30;99.90
14755;DHT22;7469;50.906;6.952;2023-11-18T16:05:28;7.30;99.90
14755;DHT22;7469;50.906;6.952;2023-11-18T16:08:01;7.30;99.90
14755;DHT22;7469;50.906;6.952;2023-11-18T16:10:31;7.30;99.90
14755;DHT22;7469;50.906;6.952;2023-11-18T16:13:00;7.30;99.90
14755;DHT22;7469;50.906;6.952;2023-11-18T16:15:29;7.30;99.90
14755;DHT22;7469;50.906;6.952;2023-11-18T16:17:59;7.30;99.90
14755;DHT22;7469;50.906;6.952;2023-11-18T16:20:28;7.20;99.90
14755;DHT22;7469;50.906;6.952;2023-11-18T16:22:59;7.30;99.90
14755;DHT22;7469;50.906;6.952;2023-11-18T16:25:31;7.30;99.90